sensor_id;sensor_type;location;lat;lon;timestamp;temperature;humidity
7606;DHT22;3844;53.360;9.738;2023-03-01T00:01:28;-3.80;95.70
7606;DHT22;3844;53.360;9.738;2023-03-01T00:03:29;-3.80;95.70
7606;DHT22;3844;53.360;9.738;2023-03-01T00:07:31;-3.80;95.70
7606;DHT22;3844;53.360;9.738;2023-03-01T00:09:32;-3.80;95.70
7606;DHT22;3844;53.360;9.738;2023-03-01T00:11:35;-3.80;95.70
7606;DHT22;3844;53.360;9.738;2023-03-01T00:13:36;-3.90;95.70
7606;DHT22;3844;53.360;9.738;2023-03-01T00:15:40;-3.90;95.70
7606;DHT22;3844;53.360;9.738;2023-03-01T00:19:42;-3.90;95.70
7606;DHT22;3844;53.360;9.738;2023-03-01T00:21:43;-3.90;95.70
7606;DHT22;3844;53.360;9.738;2023-03-01T00:23:44;-3.90;95.70
7606;DHT22;3844;53.360;9.738;2023-03-01T00:25:45;-3.90;95.70
7606;DHT22;3844;53.360;9.738;2023-03-01T00:27:46;-4.00;95.70
7606;DHT22;3844;53.360;9.738;2023-03-01T00:29:49;-4.00;95.70
7606;DHT22;3844;53.360;9.738;2023-03-01T00:33:55;-4.00;95.70
7606;DHT22;3844;53.360;9.738;2023-03-01T00:36:00;-4.00;95.70
7606;DHT22;3844;53.360;9.738;2023-03-01T00:38:01;-4.00;95.70
7606;DHT22;3844;53.360;9.738;2023-03-01T00:40:02;-4.00;95.70
7606;DHT22;3844;53.360;9.738;2023-03-01T00:44:07;-4.10;95.70
7606;DHT22;3844;53.360;9.738;2023-03-01T00:46:14;-4.10;95.70
7606;DHT22;3844;53.360;9.738;2023-03-01T00:48:15;-4.10;95.70
7606;DHT22;3844;53.360;9.738;2023-03-01T00:50:16;-4.10;95.70
7606;DHT22;3844;53.360;9.738;2023-03-01T00:56:19;-4.20;95.70
7606;DHT22;3844;53.360;9.738;2023-03-01T01:00:21;-4.20;95.70
7606;DHT22;3844;53.360;9.738;2023-03-01T01:02:22;-4.20;95.70
7606;DHT22;3844;53.360;9.738;2023-03-01T01:04:23;-4.20;95.70
7606;DHT22;3844;53.360;9.738;2023-03-01T01:06:27;-4.20;95.70
7606;DHT22;3844;53.360;9.738;2023-03-01T01:08:28;-4.20;95.70
7606;DHT22;3844;53.360;9.738;2023-03-01T01:10:29;-4.20;95.70
7606;DHT22;3844;53.360;9.738;2023-03-01T01:12:30;-4.30;95.70
7606;DHT22;3844;53.360;9.738;2023-03-01T01:14:31;-4.30;95.70
7606;DHT22;3844;53.360;9.738;2023-03-01T01:16:32;-4.30;95.70
7606;DHT22;3844;53.360;9.738;2023-03-01T01:18:33;-4.30;95.70
7606;DHT22;3844;53.360;9.738;2023-03-01T01:20:35;-4.30;95.70
7606;DHT22;3844;53.360;9.738;2023-03-01T01:22:36;-4.30;95.70
7606;DHT22;3844;53.360;9.738;2023-03-01T01:24:37;-4.30;95.70
7606;DHT22;3844;53.360;9.738;2023-03-01T01:26:38;-4.30;95.70
7606;DHT22;3844;53.360;9.738;2023-03-01T01:28:39;-4.30;95.70
7606;DHT22;3844;53.360;9.738;2023-03-01T01:30:40;-4.40;95.70
7606;DHT22;3844;53.360;9.738;2023-03-01T01:32:40;-4.40;95.70
7606;DHT22;3844;53.360;9.738;2023-03-01T01:34:41;-4.40;95.70
7606;DHT22;3844;53.360;9.738;2023-03-01T01:36:42;-4.40;95.70
7606;DHT22;3844;53.360;9.738;2023-03-01T01:38:47;-4.40;95.70
7606;DHT22;3844;53.360;9.738;2023-03-01T01:40:49;-4.40;95.70
7606;DHT22;3844;53.360;9.738;2023-03-01T01:47:29;-4.40;95.70
7606;DHT22;3844;53.360;9.738;2023-03-01T01:51:42;-4.50;95.70
7606;DHT22;3844;53.360;9.738;2023-03-01T01:53:45;-4.50;95.70
7606;DHT22;3844;53.360;9.738;2023-03-01T01:55:53;-4.50;95.70
7606;DHT22;3844;53.360;9.738;2023-03-01T01:58:01;-4.40;95.70
7606;DHT22;3844;53.360;9.738;2023-03-01T02:00:12;-4.40;95.70
7606;DHT22;3844;53.360;9.738;2023-03-01T02:02:13;-4.50;95.70
7606;DHT22;3844;53.360;9.738;2023-03-01T02:07:21;-4.40;95.70
7606;DHT22;3844;53.360;9.738;2023-03-01T02:08:52;-4.50;95.70
7606;DHT22;3844;53.360;9.738;2023-03-01T02:10:54;-4.40;95.70
7606;DHT22;3844;53.360;9.738;2023-03-01T02:12:56;-4.40;95.70
7606;DHT22;3844;53.360;9.738;2023-03-01T02:14:58;-4.50;95.70
7606;DHT22;3844;53.360;9.738;2023-03-01T02:16:58;-4.50;95.70
7606;DHT22;3844;53.360;9.738;2023-03-01T02:18:59;-4.50;95.70
7606;DHT22;3844;53.360;9.738;2023-03-01T02:23:16;-4.50;95.70
7606;DHT22;3844;53.360;9.738;2023-03-01T02:25:34;-4.50;95.70
7606;DHT22;3844;53.360;9.738;2023-03-01T02:27:50;-4.50;95.70
7606;DHT22;3844;53.360;9.738;2023-03-01T02:29:51;-4.50;95.70
7606;DHT22;3844;53.360;9.738;2023-03-01T02:31:52;-4.60;95.70
7606;DHT22;3844;53.360;9.738;2023-03-01T02:33:57;-4.60;95.70
7606;DHT22;3844;53.360;9.738;2023-03-01T02:36:05;-4.60;95.70
7606;DHT22;3844;53.360;9.738;2023-03-01T02:38:08;-4.60;95.70
7606;DHT22;3844;53.360;9.738;2023-03-01T02:40:12;-4.60;95.70
7606;DHT22;3844;53.360;9.738;2023-03-01T02:42:18;-4.60;95.70
7606;DHT22;3844;53.360;9.738;2023-03-01T02:44:21;-4.60;95.70
7606;DHT22;3844;53.360;9.738;2023-03-01T02:46:24;-4.60;95.70
7606;DHT22;3844;53.360;9.738;2023-03-01T02:48:25;-4.60;95.70
7606;DHT22;3844;53.360;9.738;2023-03-01T02:54:36;-4.70;95.70
7606;DHT22;3844;53.360;9.738;2023-03-01T02:56:39;-4.70;95.70
7606;DHT22;3844;53.360;9.738;2023-03-01T02:58:42;-4.70;95.70
7606;DHT22;3844;53.360;9.738;2023-03-01T03:00:46;-4.70;95.70
7606;DHT22;3844;53.360;9.738;2023-03-01T03:02:52;-4.70;95.70
7606;DHT22;3844;53.360;9.738;2023-03-01T03:04:53;-4.70;95.70
7606;DHT22;3844;53.360;9.738;2023-03-01T03:06:53;-4.70;95.70
7606;DHT22;3844;53.360;9.738;2023-03-01T03:08:54;-4.60;95.70
7606;DHT22;3844;53.360;9.738;2023-03-01T03:10:55;-4.70;95.70
7606;DHT22;3844;53.360;9.738;2023-03-01T03:12:59;-4.70;95.70
7606;DHT22;3844;53.360;9.738;2023-03-01T03:15:00;-4.70;95.70
7606;DHT22;3844;53.360;9.738;2023-03-01T03:17:00;-4.70;95.70
7606;DHT22;3844;53.360;9.738;2023-03-01T03:19:01;-4.70;95.70
7606;DHT22;3844;53.360;9.738;2023-03-01T03:21:08;-4.60;95.70
7606;DHT22;3844;53.360;9.738;2023-03-01T03:23:12;-4.60;95.70
7606;DHT22;3844;53.360;9.738;2023-03-01T03:25:13;-4.60;95.70
7606;DHT22;3844;53.360;9.738;2023-03-01T03:29:14;-4.60;95.70
7606;DHT22;3844;53.360;9.738;2023-03-01T03:31:15;-4.60;95.70
7606;DHT22;3844;53.360;9.738;2023-03-01T03:35:23;-4.60;95.70
7606;DHT22;3844;53.360;9.738;2023-03-01T03:37:24;-4.60;95.70
7606;DHT22;3844;53.360;9.738;2023-03-01T03:43:46;-4.50;95.70
7606;DHT22;3844;53.360;9.738;2023-03-01T03:45:48;-4.50;95.70
7606;DHT22;3844;53.360;9.738;2023-03-01T03:47:49;-4.50;95.70
7606;DHT22;3844;53.360;9.738;2023-03-01T03:49:50;-4.50;95.70
7606;DHT22;3844;53.360;9.738;2023-03-01T03:51:51;-4.50;95.70
7606;DHT22;3844;53.360;9.738;2023-03-01T03:55:53;-4.50;95.70
7606;DHT22;3844;53.360;9.738;2023-03-01T03:57:57;-4.40;95.70
7606;DHT22;3844;53.360;9.738;2023-03-01T03:59:58;-4.40;95.70
7606;DHT22;3844;53.360;9.738;2023-03-01T04:01:59;-4.40;95.70
7606;DHT22;3844;53.360;9.738;2023-03-01T04:03:59;-4.40;95.70
7606;DHT22;3844;53.360;9.738;2023-03-01T04:06:04;-4.30;95.70
7606;DHT22;3844;53.360;9.738;2023-03-01T04:08:06;-4.30;95.70
7606;DHT22;3844;53.360;9.738;2023-03-01T04:10:10;-4.30;95.70
7606;DHT22;3844;53.360;9.738;2023-03-01T04:12:11;-4.30;95.70
7606;DHT22;3844;53.360;9.738;2023-03-01T04:14:14;-4.30;95.70
7606;DHT22;3844;53.360;9.738;2023-03-01T04:18:18;-4.20;95.70
7606;DHT22;3844;53.360;9.738;2023-03-01T04:20:21;-4.20;95.70
7606;DHT22;3844;53.360;9.738;2023-03-01T04:22:25;-4.20;95.70
7606;DHT22;3844;53.360;9.738;2023-03-01T04:26:30;-4.20;95.70
7606;DHT22;3844;53.360;9.738;2023-03-01T04:28:40;-4.20;95.70
7606;DHT22;3844;53.360;9.738;2023-03-01T04:30:41;-4.20;95.70
7606;DHT22;3844;53.360;9.738;2023-03-01T04:32:41;-4.20;95.70
7606;DHT22;3844;53.360;9.738;2023-03-01T04:34:42;-4.20;95.70
7606;DHT22;3844;53.360;9.738;2023-03-01T04:36:43;-4.20;95.70
7606;DHT22;3844;53.360;9.738;2023-03-01T04:38:44;-4.20;95.70
7606;DHT22;3844;53.360;9.738;2023-03-01T04:40:48;-4.10;95.70
7606;DHT22;3844;53.360;9.738;2023-03-01T04:42:49;-4.10;95.70
7606;DHT22;3844;53.360;9.738;2023-03-01T04:44:49;-4.00;95.70
7606;DHT22;3844;53.360;9.738;2023-03-01T04:46:53;-4.00;95.70
7606;DHT22;3844;53.360;9.738;2023-03-01T04:48:54;-3.90;95.70
7606;DHT22;3844;53.360;9.738;2023-03-01T04:50:55;-3.90;95.70
7606;DHT22;3844;53.360;9.738;2023-03-01T04:52:56;-3.80;95.70
7606;DHT22;3844;53.360;9.738;2023-03-01T04:54:59;-3.80;95.70
7606;DHT22;3844;53.360;9.738;2023-03-01T04:57:01;-3.80;95.70
7606;DHT22;3844;53.360;9.738;2023-03-01T04:59:01;-3.70;95.70
7606;DHT22;3844;53.360;9.738;2023-03-01T05:01:10;-3.70;95.70
7606;DHT22;3844;53.360;9.738;2023-03-01T05:07:25;-3.50;95.70
7606;DHT22;3844;53.360;9.738;2023-03-01T05:09:26;-3.50;95.70
7606;DHT22;3844;53.360;9.738;2023-03-01T05:13:32;-3.40;95.70
7606;DHT22;3844;53.360;9.738;2023-03-01T05:15:32;-3.30;95.70
7606;DHT22;3844;53.360;9.738;2023-03-01T05:17:34;-3.30;95.70
7606;DHT22;3844;53.360;9.738;2023-03-01T05:19:34;-3.20;95.70
7606;DHT22;3844;53.360;9.738;2023-03-01T05:21:35;-3.10;95.70
7606;DHT22;3844;53.360;9.738;2023-03-01T05:26:01;-3.00;95.70
7606;DHT22;3844;53.360;9.738;2023-03-01T05:28:04;-3.00;95.70
7606;DHT22;3844;53.360;9.738;2023-03-01T05:30:05;-3.00;95.70
7606;DHT22;3844;53.360;9.738;2023-03-01T05:32:14;-2.90;95.70
7606;DHT22;3844;53.360;9.738;2023-03-01T05:34:15;-2.90;95.70
7606;DHT22;3844;53.360;9.738;2023-03-01T05:36:16;-2.80;95.70
7606;DHT22;3844;53.360;9.738;2023-03-01T05:38:19;-2.80;95.70
7606;DHT22;3844;53.360;9.738;2023-03-01T05:40:22;-2.80;95.70
7606;DHT22;3844;53.360;9.738;2023-03-01T05:42:24;-2.70;95.70
7606;DHT22;3844;53.360;9.738;2023-03-01T05:44:25;-2.70;95.70
7606;DHT22;3844;53.360;9.738;2023-03-01T05:46:26;-2.60;95.70
7606;DHT22;3844;53.360;9.738;2023-03-01T05:48:27;-2.60;95.70
7606;DHT22;3844;53.360;9.738;2023-03-01T05:50:29;-2.60;95.70
7606;DHT22;3844;53.360;9.738;2023-03-01T05:52:35;-2.50;95.70
7606;DHT22;3844;53.360;9.738;2023-03-01T05:54:35;-2.50;95.70
7606;DHT22;3844;53.360;9.738;2023-03-01T05:56:37;-2.40;95.70
7606;DHT22;3844;53.360;9.738;2023-03-01T05:58:37;-2.40;95.70
7606;DHT22;3844;53.360;9.738;2023-03-01T06:02:40;-2.40;95.70
7606;DHT22;3844;53.360;9.738;2023-03-01T06:06:42;-2.30;95.70
7606;DHT22;3844;53.360;9.738;2023-03-01T06:08:42;-2.30;95.70
7606;DHT22;3844;53.360;9.738;2023-03-01T06:10:46;-2.30;95.70
7606;DHT22;3844;53.360;9.738;2023-03-01T06:12:48;-2.30;95.70
7606;DHT22;3844;53.360;9.738;2023-03-01T06:16:49;-2.20;95.70
7606;DHT22;3844;53.360;9.738;2023-03-01T06:18:50;-2.10;95.70
7606;DHT22;3844;53.360;9.738;2023-03-01T06:20:55;-2.10;95.70
7606;DHT22;3844;53.360;9.738;2023-03-01T06:22:56;-2.10;95.70
7606;DHT22;3844;53.360;9.738;2023-03-01T06:24:57;-2.00;95.70
7606;DHT22;3844;53.360;9.738;2023-03-01T06:26:57;-2.00;95.70
7606;DHT22;3844;53.360;9.738;2023-03-01T06:28:58;-2.00;95.70
7606;DHT22;3844;53.360;9.738;2023-03-01T06:30:59;-1.90;95.70
7606;DHT22;3844;53.360;9.738;2023-03-01T06:35:04;-1.90;95.70
7606;DHT22;3844;53.360;9.738;2023-03-01T06:37:06;-1.80;95.70
7606;DHT22;3844;53.360;9.738;2023-03-01T06:41:08;-1.70;95.70
7606;DHT22;3844;53.360;9.738;2023-03-01T06:45:10;-1.70;95.70
7606;DHT22;3844;53.360;9.738;2023-03-01T06:49:12;-1.60;95.70
7606;DHT22;3844;53.360;9.738;2023-03-01T06:51:13;-1.50;95.70
7606;DHT22;3844;53.360;9.738;2023-03-01T06:53:14;-1.50;95.70
7606;DHT22;3844;53.360;9.738;2023-03-01T06:55:15;-1.50;95.70
7606;DHT22;3844;53.360;9.738;2023-03-01T06:57:15;-1.40;95.70
7606;DHT22;3844;53.360;9.738;2023-03-01T06:59:17;-1.40;95.70
7606;DHT22;3844;53.360;9.738;2023-03-01T07:01:18;-1.30;95.70
7606;DHT22;3844;53.360;9.738;2023-03-01T07:03:18;-1.30;95.70
7606;DHT22;3844;53.360;9.738;2023-03-01T07:05:19;-1.20;95.70
7606;DHT22;3844;53.360;9.738;2023-03-01T07:07:20;-1.20;95.70
7606;DHT22;3844;53.360;9.738;2023-03-01T07:09:23;-1.10;95.70
7606;DHT22;3844;53.360;9.738;2023-03-01T07:11:23;-1.10;95.70
7606;DHT22;3844;53.360;9.738;2023-03-01T07:13:24;-1.10;95.70
7606;DHT22;3844;53.360;9.738;2023-03-01T07:15:26;-1.00;95.70
7606;DHT22;3844;53.360;9.738;2023-03-01T07:19:28;-1.00;95.70
7606;DHT22;3844;53.360;9.738;2023-03-01T07:21:29;-1.00;95.70
7606;DHT22;3844;53.360;9.738;2023-03-01T07:23:29;-1.00;95.70
7606;DHT22;3844;53.360;9.738;2023-03-01T07:27:32;-0.90;95.70
7606;DHT22;3844;53.360;9.738;2023-03-01T07:29:33;-0.90;95.70
7606;DHT22;3844;53.360;9.738;2023-03-01T07:31:34;-0.80;95.70
7606;DHT22;3844;53.360;9.738;2023-03-01T07:35:36;-0.80;95.70
7606;DHT22;3844;53.360;9.738;2023-03-01T07:37:37;-0.70;95.70
7606;DHT22;3844;53.360;9.738;2023-03-01T07:39:37;-0.70;95.70
7606;DHT22;3844;53.360;9.738;2023-03-01T07:41:38;-0.60;95.70
7606;DHT22;3844;53.360;9.738;2023-03-01T07:45:40;-0.60;95.70
7606;DHT22;3844;53.360;9.738;2023-03-01T07:47:40;-0.50;95.70
7606;DHT22;3844;53.360;9.738;2023-03-01T07:49:44;-0.50;95.70
7606;DHT22;3844;53.360;9.738;2023-03-01T07:51:45;-0.40;95.70
7606;DHT22;3844;53.360;9.738;2023-03-01T07:53:46;-0.40;95.70
7606;DHT22;3844;53.360;9.738;2023-03-01T07:57:49;-0.20;95.70
7606;DHT22;3844;53.360;9.738;2023-03-01T07:59:50;-0.20;95.70
7606;DHT22;3844;53.360;9.738;2023-03-01T08:01:51;-0.10;95.70
7606;DHT22;3844;53.360;9.738;2023-03-01T08:11:57;0.40;95.70
7606;DHT22;3844;53.360;9.738;2023-03-01T08:13:59;0.50;95.70
7606;DHT22;3844;53.360;9.738;2023-03-01T08:16:02;0.60;95.70
7606;DHT22;3844;53.360;9.738;2023-03-01T08:18:05;0.70;95.70
7606;DHT22;3844;53.360;9.738;2023-03-01T08:20:07;0.80;95.70
7606;DHT22;3844;53.360;9.738;2023-03-01T08:22:08;0.80;95.70
7606;DHT22;3844;53.360;9.738;2023-03-01T08:24:08;0.90;95.70
7606;DHT22;3844;53.360;9.738;2023-03-01T08:26:13;1.00;95.70
7606;DHT22;3844;53.360;9.738;2023-03-01T08:28:14;1.10;95.70
7606;DHT22;3844;53.360;9.738;2023-03-01T08:30:15;1.20;95.70
7606;DHT22;3844;53.360;9.738;2023-03-01T08:32:15;1.30;95.70
7606;DHT22;3844;53.360;9.738;2023-03-01T08:34:17;1.40;95.70
7606;DHT22;3844;53.360;9.738;2023-03-01T08:36:18;1.50;95.70
7606;DHT22;3844;53.360;9.738;2023-03-01T08:38:20;1.60;95.70
7606;DHT22;3844;53.360;9.738;2023-03-01T08:40:20;1.70;95.70
7606;DHT22;3844;53.360;9.738;2023-03-01T08:42:21;1.90;95.70
7606;DHT22;3844;53.360;9.738;2023-03-01T08:44:22;2.00;95.70
7606;DHT22;3844;53.360;9.738;2023-03-01T08:46:22;2.20;95.70
7606;DHT22;3844;53.360;9.738;2023-03-01T08:48:23;2.30;95.70
7606;DHT22;3844;53.360;9.738;2023-03-01T08:50:24;2.50;95.70
7606;DHT22;3844;53.360;9.738;2023-03-01T08:52:25;2.70;95.70
7606;DHT22;3844;53.360;9.738;2023-03-01T08:54:26;2.90;95.70
7606;DHT22;3844;53.360;9.738;2023-03-01T08:56:27;3.20;95.70
7606;DHT22;3844;53.360;9.738;2023-03-01T08:58:28;3.40;94.30
7606;DHT22;3844;53.360;9.738;2023-03-01T09:00:28;3.60;92.10
7606;DHT22;3844;53.360;9.738;2023-03-01T09:02:29;3.60;89.60
7606;DHT22;3844;53.360;9.738;2023-03-01T09:04:30;3.70;88.10
7606;DHT22;3844;53.360;9.738;2023-03-01T09:06:32;3.70;87.10
7606;DHT22;3844;53.360;9.738;2023-03-01T09:08:38;3.70;85.20
7606;DHT22;3844;53.360;9.738;2023-03-01T09:10:38;3.60;84.40
7606;DHT22;3844;53.360;9.738;2023-03-01T09:12:39;3.60;84.50
7606;DHT22;3844;53.360;9.738;2023-03-01T09:16:42;3.90;85.90
7606;DHT22;3844;53.360;9.738;2023-03-01T09:18:44;4.10;85.00
7606;DHT22;3844;53.360;9.738;2023-03-01T09:22:46;4.50;83.40
7606;DHT22;3844;53.360;9.738;2023-03-01T09:26:48;4.90;80.90
7606;DHT22;3844;53.360;9.738;2023-03-01T09:28:51;5.00;80.60
7606;DHT22;3844;53.360;9.738;2023-03-01T09:30:52;5.10;79.70
7606;DHT22;3844;53.360;9.738;2023-03-01T09:32:53;5.30;79.40
7606;DHT22;3844;53.360;9.738;2023-03-01T09:37:06;5.70;79.00
7606;DHT22;3844;53.360;9.738;2023-03-01T09:39:07;6.00;78.60
7606;DHT22;3844;53.360;9.738;2023-03-01T09:45:36;6.10;75.20
7606;DHT22;3844;53.360;9.738;2023-03-01T09:47:40;6.20;76.30
7606;DHT22;3844;53.360;9.738;2023-03-01T09:49:43;6.30;75.80
7606;DHT22;3844;53.360;9.738;2023-03-01T09:52:13;6.30;73.00
7606;DHT22;3844;53.360;9.738;2023-03-01T09:54:19;6.30;74.00
7606;DHT22;3844;53.360;9.738;2023-03-01T09:58:59;6.50;75.00
7606;DHT22;3844;53.360;9.738;2023-03-01T10:06:15;7.10;73.60
7606;DHT22;3844;53.360;9.738;2023-03-01T10:10:44;7.60;73.30
7606;DHT22;3844;53.360;9.738;2023-03-01T10:12:47;8.10;73.60
7606;DHT22;3844;53.360;9.738;2023-03-01T10:15:20;8.60;71.90
7606;DHT22;3844;53.360;9.738;2023-03-01T10:19:43;9.50;70.40
7606;DHT22;3844;53.360;9.738;2023-03-01T10:21:45;9.70;67.30
7606;DHT22;3844;53.360;9.738;2023-03-01T10:23:50;9.90;66.70
7606;DHT22;3844;53.360;9.738;2023-03-01T10:28:29;10.70;67.60
7606;DHT22;3844;53.360;9.738;2023-03-01T10:30:37;11.10;65.80
7606;DHT22;3844;53.360;9.738;2023-03-01T10:32:40;11.40;65.50
7606;DHT22;3844;53.360;9.738;2023-03-01T10:34:40;11.80;64.80
7606;DHT22;3844;53.360;9.738;2023-03-01T10:36:43;12.00;63.20
7606;DHT22;3844;53.360;9.738;2023-03-01T10:38:52;12.00;62.10
7606;DHT22;3844;53.360;9.738;2023-03-01T10:41:05;12.00;63.00
7606;DHT22;3844;53.360;9.738;2023-03-01T10:43:10;12.00;62.70
7606;DHT22;3844;53.360;9.738;2023-03-01T10:47:30;11.90;61.60
7606;DHT22;3844;53.360;9.738;2023-03-01T10:49:31;11.90;62.80
7606;DHT22;3844;53.360;9.738;2023-03-01T10:51:32;11.90;64.00
7606;DHT22;3844;53.360;9.738;2023-03-01T10:53:36;12.00;64.00
7606;DHT22;3844;53.360;9.738;2023-03-01T10:55:39;12.20;64.30
7606;DHT22;3844;53.360;9.738;2023-03-01T10:57:40;12.50;62.20
7606;DHT22;3844;53.360;9.738;2023-03-01T10:59:41;12.40;62.00
7606;DHT22;3844;53.360;9.738;2023-03-01T11:01:42;12.50;62.90
7606;DHT22;3844;53.360;9.738;2023-03-01T11:03:43;12.70;63.60
7606;DHT22;3844;53.360;9.738;2023-03-01T11:08:00;13.20;62.00
7606;DHT22;3844;53.360;9.738;2023-03-01T11:10:11;13.30;62.60
7606;DHT22;3844;53.360;9.738;2023-03-01T11:12:16;13.30;63.20
7606;DHT22;3844;53.360;9.738;2023-03-01T11:14:30;13.40;62.70
7606;DHT22;3844;53.360;9.738;2023-03-01T11:16:37;13.50;63.00
7606;DHT22;3844;53.360;9.738;2023-03-01T11:18:38;13.60;62.80
7606;DHT22;3844;53.360;9.738;2023-03-01T11:20:40;13.70;62.00
7606;DHT22;3844;53.360;9.738;2023-03-01T11:22:49;13.80;62.10
7606;DHT22;3844;53.360;9.738;2023-03-01T11:24:54;14.00;62.50
7606;DHT22;3844;53.360;9.738;2023-03-01T11:26:55;14.00;62.50
7606;DHT22;3844;53.360;9.738;2023-03-01T11:29:00;14.30;61.40
7606;DHT22;3844;53.360;9.738;2023-03-01T11:31:10;14.40;62.10
7606;DHT22;3844;53.360;9.738;2023-03-01T11:36:07;14.40;61.60
7606;DHT22;3844;53.360;9.738;2023-03-01T11:38:16;14.20;61.70
7606;DHT22;3844;53.360;9.738;2023-03-01T11:40:48;14.00;60.30
7606;DHT22;3844;53.360;9.738;2023-03-01T11:45:22;13.30;63.10
7606;DHT22;3844;53.360;9.738;2023-03-01T11:54:30;13.40;62.20
7606;DHT22;3844;53.360;9.738;2023-03-01T11:56:43;13.90;61.80
7606;DHT22;3844;53.360;9.738;2023-03-01T12:08:17;13.30;60.90
7606;DHT22;3844;53.360;9.738;2023-03-01T12:17:30;13.30;63.00
7606;DHT22;3844;53.360;9.738;2023-03-01T12:19:39;13.70;62.60
7606;DHT22;3844;53.360;9.738;2023-03-01T12:31:00;14.60;59.80
7606;DHT22;3844;53.360;9.738;2023-03-01T12:50:36;14.40;60.50
7606;DHT22;3844;53.360;9.738;2023-03-01T12:52:45;14.40;60.80
7606;DHT22;3844;53.360;9.738;2023-03-01T12:54:49;14.70;61.30
7606;DHT22;3844;53.360;9.738;2023-03-01T12:56:50;15.00;60.90
7606;DHT22;3844;53.360;9.738;2023-03-01T13:06:21;14.70;59.90
7606;DHT22;3844;53.360;9.738;2023-03-01T13:14:54;14.10;61.90
7606;DHT22;3844;53.360;9.738;2023-03-01T13:16:55;14.10;60.50
7606;DHT22;3844;53.360;9.738;2023-03-01T13:19:20;14.10;61.80
7606;DHT22;3844;53.360;9.738;2023-03-01T13:21:31;14.20;61.10
7606;DHT22;3844;53.360;9.738;2023-03-01T13:23:37;14.00;61.50
7606;DHT22;3844;53.360;9.738;2023-03-01T13:26:15;14.00;62.30
7606;DHT22;3844;53.360;9.738;2023-03-01T13:32:36;14.10;62.00
7606;DHT22;3844;53.360;9.738;2023-03-01T13:34:43;14.00;61.80
7606;DHT22;3844;53.360;9.738;2023-03-01T13:36:48;13.80;61.00
7606;DHT22;3844;53.360;9.738;2023-03-01T13:40:57;13.80;61.50
7606;DHT22;3844;53.360;9.738;2023-03-01T13:43:51;13.80;62.60
7606;DHT22;3844;53.360;9.738;2023-03-01T13:45:45;13.90;62.40
7606;DHT22;3844;53.360;9.738;2023-03-01T13:47:51;14.10;62.10
7606;DHT22;3844;53.360;9.738;2023-03-01T13:49:58;14.20;62.00
7606;DHT22;3844;53.360;9.738;2023-03-01T13:51:59;14.20;61.50
7606;DHT22;3844;53.360;9.738;2023-03-01T13:54:00;14.20;60.60
7606;DHT22;3844;53.360;9.738;2023-03-01T13:56:13;14.10;62.10
7606;DHT22;3844;53.360;9.738;2023-03-01T13:58:25;14.20;62.00
7606;DHT22;3844;53.360;9.738;2023-03-01T14:02:32;14.10;61.10
7606;DHT22;3844;53.360;9.738;2023-03-01T14:04:34;13.90;61.60
7606;DHT22;3844;53.360;9.738;2023-03-01T14:06:36;13.90;62.10
7606;DHT22;3844;53.360;9.738;2023-03-01T14:08:37;13.80;61.80
7606;DHT22;3844;53.360;9.738;2023-03-01T14:11:13;13.50;62.40
7606;DHT22;3844;53.360;9.738;2023-03-01T14:15:42;12.80;65.30
7606;DHT22;3844;53.360;9.738;2023-03-01T14:17:50;13.10;64.90
7606;DHT22;3844;53.360;9.738;2023-03-01T14:19:59;13.40;64.00
7606;DHT22;3844;53.360;9.738;2023-03-01T14:22:20;13.50;63.00
7606;DHT22;3844;53.360;9.738;2023-03-01T14:24:22;13.40;63.00
7606;DHT22;3844;53.360;9.738;2023-03-01T14:26:23;13.00;63.30
7606;DHT22;3844;53.360;9.738;2023-03-01T14:28:31;12.60;64.90
7606;DHT22;3844;53.360;9.738;2023-03-01T14:30:41;12.20;66.50
7606;DHT22;3844;53.360;9.738;2023-03-01T14:32:42;11.70;67.60
7606;DHT22;3844;53.360;9.738;2023-03-01T14:34:45;11.30;69.00
7606;DHT22;3844;53.360;9.738;2023-03-01T14:38:47;10.80;70.30
7606;DHT22;3844;53.360;9.738;2023-03-01T14:40:58;10.60;70.90
7606;DHT22;3844;53.360;9.738;2023-03-01T14:43:01;10.30;71.70
7606;DHT22;3844;53.360;9.738;2023-03-01T14:45:04;10.00;72.80
7606;DHT22;3844;53.360;9.738;2023-03-01T14:47:13;9.90;73.60
7606;DHT22;3844;53.360;9.738;2023-03-01T14:49:24;9.70;73.40
7606;DHT22;3844;53.360;9.738;2023-03-01T14:51:25;9.60;73.70
7606;DHT22;3844;53.360;9.738;2023-03-01T14:53:29;9.50;74.50
7606;DHT22;3844;53.360;9.738;2023-03-01T14:55:38;9.40;74.60
7606;DHT22;3844;53.360;9.738;2023-03-01T14:57:49;9.20;75.20
7606;DHT22;3844;53.360;9.738;2023-03-01T14:59:52;8.90;77.00
7606;DHT22;3844;53.360;9.738;2023-03-01T15:01:57;8.70;77.30
7606;DHT22;3844;53.360;9.738;2023-03-01T15:03:58;8.50;78.10
7606;DHT22;3844;53.360;9.738;2023-03-01T15:06:01;8.60;78.10
7606;DHT22;3844;53.360;9.738;2023-03-01T15:08:03;8.50;78.60
7606;DHT22;3844;53.360;9.738;2023-03-01T15:10:06;8.40;78.80
7606;DHT22;3844;53.360;9.738;2023-03-01T15:14:43;8.30;79.60
7606;DHT22;3844;53.360;9.738;2023-03-01T15:16:44;8.20;79.60
7606;DHT22;3844;53.360;9.738;2023-03-01T15:18:54;8.10;79.70
7606;DHT22;3844;53.360;9.738;2023-03-01T15:21:04;8.10;80.50
7606;DHT22;3844;53.360;9.738;2023-03-01T15:23:05;8.00;80.60
7606;DHT22;3844;53.360;9.738;2023-03-01T15:25:15;7.90;80.70
7606;DHT22;3844;53.360;9.738;2023-03-01T15:27:19;7.80;81.30
7606;DHT22;3844;53.360;9.738;2023-03-01T15:29:25;7.70;80.70
7606;DHT22;3844;53.360;9.738;2023-03-01T15:31:34;7.60;81.20
7606;DHT22;3844;53.360;9.738;2023-03-01T15:33:38;7.50;81.30
7606;DHT22;3844;53.360;9.738;2023-03-01T15:35:42;7.50;81.60
7606;DHT22;3844;53.360;9.738;2023-03-01T15:37:47;7.40;81.60
7606;DHT22;3844;53.360;9.738;2023-03-01T15:39:55;7.40;81.60
7606;DHT22;3844;53.360;9.738;2023-03-01T15:41:56;7.30;82.30
7606;DHT22;3844;53.360;9.738;2023-03-01T15:43:58;7.20;82.50
7606;DHT22;3844;53.360;9.738;2023-03-01T15:45:59;7.10;82.50
7606;DHT22;3844;53.360;9.738;2023-03-01T15:48:02;7.10;83.40
7606;DHT22;3844;53.360;9.738;2023-03-01T15:50:04;7.00;83.60
7606;DHT22;3844;53.360;9.738;2023-03-01T15:52:14;6.90;83.90
7606;DHT22;3844;53.360;9.738;2023-03-01T15:54:22;6.90;84.50
7606;DHT22;3844;53.360;9.738;2023-03-01T15:56:23;6.80;85.10
7606;DHT22;3844;53.360;9.738;2023-03-01T15:58:25;6.70;86.20
7606;DHT22;3844;53.360;9.738;2023-03-01T16:00:26;6.60;86.60
7606;DHT22;3844;53.360;9.738;2023-03-01T16:02:27;6.60;86.80
7606;DHT22;3844;53.360;9.738;2023-03-01T16:04:28;6.50;86.70
7606;DHT22;3844;53.360;9.738;2023-03-01T16:06:31;6.50;87.10
7606;DHT22;3844;53.360;9.738;2023-03-01T16:08:32;6.40;87.80
7606;DHT22;3844;53.360;9.738;2023-03-01T16:10:33;6.30;88.20
7606;DHT22;3844;53.360;9.738;2023-03-01T16:14:35;6.20;88.30
7606;DHT22;3844;53.360;9.738;2023-03-01T16:16:36;6.20;88.80
7606;DHT22;3844;53.360;9.738;2023-03-01T16:20:39;6.00;89.90
7606;DHT22;3844;53.360;9.738;2023-03-01T16:22:40;6.00;90.60
7606;DHT22;3844;53.360;9.738;2023-03-01T16:24:44;5.90;91.30
7606;DHT22;3844;53.360;9.738;2023-03-01T16:26:44;5.90;91.30
7606;DHT22;3844;53.360;9.738;2023-03-01T16:28:46;5.80;92.20
7606;DHT22;3844;53.360;9.738;2023-03-01T16:30:47;5.70;92.20
7606;DHT22;3844;53.360;9.738;2023-03-01T16:32:51;5.70;92.40
7606;DHT22;3844;53.360;9.738;2023-03-01T16:36:52;5.60;93.00
7606;DHT22;3844;53.360;9.738;2023-03-01T16:38:54;5.50;93.40
7606;DHT22;3844;53.360;9.738;2023-03-01T16:40:55;5.50;94.10
7606;DHT22;3844;53.360;9.738;2023-03-01T16:42:57;5.40;94.30
7606;DHT22;3844;53.360;9.738;2023-03-01T16:45:00;5.30;95.30
7606;DHT22;3844;53.360;9.738;2023-03-01T16:47:02;5.20;95.70
7606;DHT22;3844;53.360;9.738;2023-03-01T16:51:04;5.00;95.70
7606;DHT22;3844;53.360;9.738;2023-03-01T16:53:04;5.00;95.70
7606;DHT22;3844;53.360;9.738;2023-03-01T16:55:07;4.90;95.70
7606;DHT22;3844;53.360;9.738;2023-03-01T16:57:10;4.90;95.70
7606;DHT22;3844;53.360;9.738;2023-03-01T16:59:11;4.80;95.70
7606;DHT22;3844;53.360;9.738;2023-03-01T17:01:17;4.70;95.70